sensor_id;sensor_type;location;lat;lon;timestamp;pressure;altitude;pressure_sealevel;temperature;humidity
44751;BME280;30477;48.224;11.470;2023-02-01T00:01:36;96580.25;;;3.30;67.10
44751;BME280;30477;48.224;11.470;2023-02-01T00:04:01;96573.31;;;3.32;67.02
44751;BME280;30477;48.224;11.470;2023-02-01T00:06:27;96572.81;;;3.25;66.82
44751;BME280;30477;48.224;11.470;2023-02-01T00:08:53;96573.00;;;3.22;66.99
44751;BME280;30477;48.224;11.470;2023-02-01T00:11:19;96573.81;;;3.22;67.09
44751;BME280;30477;48.224;11.470;2023-02-01T00:13:45;96568.56;;;3.25;67.27
44751;BME280;30477;48.224;11.470;2023-02-01T00:16:16;96569.38;;;3.26;67.10
44751;BME280;30477;48.224;11.470;2023-02-01T00:18:42;96577.13;;;3.24;67.22
44751;BME280;30477;48.224;11.470;2023-02-01T00:21:09;96568.69;;;3.22;67.23
44751;BME280;30477;48.224;11.470;2023-02-01T00:23:35;96580.75;;;3.20;67.16
44751;BME280;30477;48.224;11.470;2023-02-01T00:26:03;96574.00;;;3.19;67.40
44751;BME280;30477;48.224;11.470;2023-02-01T00:28:28;96581.06;;;3.14;67.54
44751;BME280;30477;48.224;11.470;2023-02-01T00:31:02;96567.72;;;3.09;67.80
44751;BME280;30477;48.224;11.470;2023-02-01T00:33:28;96577.75;;;3.12;67.97
44751;BME280;30477;48.224;11.470;2023-02-01T00:35:58;96558.44;;;3.07;67.98
44751;BME280;30477;48.224;11.470;2023-02-01T00:38:28;96554.19;;;3.07;68.33
44751;BME280;30477;48.224;11.470;2023-02-01T00:40:54;96551.19;;;2.99;68.92
44751;BME280;30477;48.224;11.470;2023-02-01T00:43:19;96548.22;;;2.91;69.38
44751;BME280;30477;48.224;11.470;2023-02-01T00:45:46;96555.28;;;2.85;69.63
44751;BME280;30477;48.224;11.470;2023-02-01T00:48:11;96550.53;;;2.79;70.32
44751;BME280;30477;48.224;11.470;2023-02-01T00:50:41;96542.44;;;2.71;70.73
44751;BME280;30477;48.224;11.470;2023-02-01T00:53:06;96549.50;;;2.66;71.17
44751;BME280;30477;48.224;11.470;2023-02-01T00:55:32;96551.47;;;2.61;71.71
44751;BME280;30477;48.224;11.470;2023-02-01T00:57:57;96544.06;;;2.56;71.97
44751;BME280;30477;48.224;11.470;2023-02-01T01:00:23;96544.19;;;2.53;72.14
44751;BME280;30477;48.224;11.470;2023-02-01T01:02:48;96558.03;;;2.49;72.47
44751;BME280;30477;48.224;11.470;2023-02-01T01:05:13;96554.72;;;2.47;72.60
44751;BME280;30477;48.224;11.470;2023-02-01T01:07:38;96553.91;;;2.47;72.68
44751;BME280;30477;48.224;11.470;2023-02-01T01:10:04;96557.22;;;2.49;72.88
44751;BME280;30477;48.224;11.470;2023-02-01T01:12:30;96551.28;;;2.48;72.82
44751;BME280;30477;48.224;11.470;2023-02-01T01:14:55;96548.63;;;2.50;73.10
44751;BME280;30477;48.224;11.470;2023-02-01T01:17:20;96545.00;;;2.54;73.03
44751;BME280;30477;48.224;11.470;2023-02-01T01:19:46;96538.09;;;2.56;72.85
44751;BME280;30477;48.224;11.470;2023-02-01T01:22:11;96543.81;;;2.61;72.86
44751;BME280;30477;48.224;11.470;2023-02-01T01:24:36;96539.59;;;2.60;72.79
44751;BME280;30477;48.224;11.470;2023-02-01T01:27:02;96548.19;;;2.59;72.63
44751;BME280;30477;48.224;11.470;2023-02-01T01:29:28;96547.25;;;2.60;72.68
44751;BME280;30477;48.224;11.470;2023-02-01T01:31:53;96540.44;;;2.60;72.73
44751;BME280;30477;48.224;11.470;2023-02-01T01:34:18;96542.66;;;2.67;72.64
44751;BME280;30477;48.224;11.470;2023-02-01T01:36:43;96537.78;;;2.62;72.67
44751;BME280;30477;48.224;11.470;2023-02-01T01:39:09;96540.03;;;2.68;72.85
44751;BME280;30477;48.224;11.470;2023-02-01T01:41:34;96537.47;;;2.68;72.81
44751;BME280;30477;48.224;11.470;2023-02-01T01:44:04;96524.00;;;2.64;72.69
44751;BME280;30477;48.224;11.470;2023-02-01T01:46:37;96517.50;;;2.59;72.93
44751;BME280;30477;48.224;11.470;2023-02-01T01:51:33;96507.53;;;2.54;73.41
44751;BME280;30477;48.224;11.470;2023-02-01T01:56:29;96503.47;;;2.50;73.40
44751;BME280;30477;48.224;11.470;2023-02-01T01:58:55;96506.78;;;2.52;73.68
44751;BME280;30477;48.224;11.470;2023-02-01T02:01:21;96495.56;;;2.55;73.58
44751;BME280;30477;48.224;11.470;2023-02-01T02:03:47;96497.53;;;2.50;73.46
44751;BME280;30477;48.224;11.470;2023-02-01T02:09:20;96496.44;;;2.38;73.93
44751;BME280;30477;48.224;11.470;2023-02-01T02:11:46;96495.63;;;2.37;74.06
44751;BME280;30477;48.224;11.470;2023-02-01T02:14:13;96492.00;;;2.41;74.16
44751;BME280;30477;48.224;11.470;2023-02-01T02:22:45;96500.22;;;2.31;74.37
44751;BME280;30477;48.224;11.470;2023-02-01T02:36:38;96496.38;;;2.39;74.74
44751;BME280;30477;48.224;11.470;2023-02-01T02:48:28;96508.22;;;2.40;74.88
44751;BME280;30477;48.224;11.470;2023-02-01T02:51:04;96491.09;;;2.42;75.01
44751;BME280;30477;48.224;11.470;2023-02-01T02:54:09;96487.63;;;2.43;75.03
44751;BME280;30477;48.224;11.470;2023-02-01T02:56:56;96490.03;;;2.47;74.85
44751;BME280;30477;48.224;11.470;2023-02-01T02:59:43;96479.75;;;2.48;74.78
44751;BME280;30477;48.224;11.470;2023-02-01T03:02:29;96476.28;;;2.49;74.75
44751;BME280;30477;48.224;11.470;2023-02-01T03:05:14;96476.03;;;2.54;74.69
44751;BME280;30477;48.224;11.470;2023-02-01T03:10:30;96483.53;;;2.57;74.58
44751;BME280;30477;48.224;11.470;2023-02-01T03:13:02;96476.63;;;2.59;74.71
44751;BME280;30477;48.224;11.470;2023-02-01T03:15:47;96469.69;;;2.61;74.42
44751;BME280;30477;48.224;11.470;2023-02-01T03:18:40;96472.34;;;2.59;74.33
44751;BME280;30477;48.224;11.470;2023-02-01T03:21:17;96462.94;;;2.60;74.21
44751;BME280;30477;48.224;11.470;2023-02-01T03:23:46;96477.19;;;2.64;74.09
44751;BME280;30477;48.224;11.470;2023-02-01T03:26:14;96463.53;;;2.65;73.97
44751;BME280;30477;48.224;11.470;2023-02-01T03:28:49;96475.38;;;2.66;73.92
44751;BME280;30477;48.224;11.470;2023-02-01T03:31:17;96466.97;;;2.64;73.93
44751;BME280;30477;48.224;11.470;2023-02-01T03:33:42;96456.69;;;2.66;73.86
44751;BME280;30477;48.224;11.470;2023-02-01T03:36:27;96457.91;;;2.74;73.85
44751;BME280;30477;48.224;11.470;2023-02-01T03:41:42;96469.88;;;2.74;73.41
44751;BME280;30477;48.224;11.470;2023-02-01T03:44:22;96469.38;;;2.67;73.47
44751;BME280;30477;48.224;11.470;2023-02-01T03:47:11;96461.88;;;2.64;73.48
44751;BME280;30477;48.224;11.470;2023-02-01T03:49:51;96460.03;;;2.66;73.63
44751;BME280;30477;48.224;11.470;2023-02-01T03:52:22;96463.28;;;2.70;73.47
44751;BME280;30477;48.224;11.470;2023-02-01T03:54:49;96465.16;;;2.66;73.27
44751;BME280;30477;48.224;11.470;2023-02-01T03:57:20;96450.56;;;2.68;73.31
44751;BME280;30477;48.224;11.470;2023-02-01T03:59:47;96442.97;;;2.67;73.35
44751;BME280;30477;48.224;11.470;2023-02-01T04:02:12;96459.31;;;2.64;73.23
44751;BME280;30477;48.224;11.470;2023-02-01T04:04:37;96449.09;;;2.64;73.28
44751;BME280;30477;48.224;11.470;2023-02-01T04:07:03;96459.97;;;2.68;73.41
44751;BME280;30477;48.224;11.470;2023-02-01T04:09:29;96461.59;;;2.69;73.18
44751;BME280;30477;48.224;11.470;2023-02-01T04:11:54;96460.22;;;2.63;73.19
44751;BME280;30477;48.224;11.470;2023-02-01T04:14:19;96454.38;;;2.61;73.20
44751;BME280;30477;48.224;11.470;2023-02-01T04:16:45;96460.13;;;2.64;73.26
44751;BME280;30477;48.224;11.470;2023-02-01T04:19:10;96459.41;;;2.62;73.15
44751;BME280;30477;48.224;11.470;2023-02-01T04:21:36;96457.50;;;2.66;73.29
44751;BME280;30477;48.224;11.470;2023-02-01T04:24:01;96443.66;;;2.70;73.18
44751;BME280;30477;48.224;11.470;2023-02-01T04:26:26;96444.25;;;2.75;72.98
44751;BME280;30477;48.224;11.470;2023-02-01T04:28:52;96452.47;;;2.80;72.90
44751;BME280;30477;48.224;11.470;2023-02-01T04:31:18;96449.91;;;2.80;72.80
44751;BME280;30477;48.224;11.470;2023-02-01T04:33:53;96460.81;;;2.84;72.80
44751;BME280;30477;48.224;11.470;2023-02-01T04:36:20;96451.41;;;2.84;72.62
44751;BME280;30477;48.224;11.470;2023-02-01T04:38:47;96456.84;;;2.78;72.52
44751;BME280;30477;48.224;11.470;2023-02-01T04:41:12;96459.41;;;2.78;72.59
44751;BME280;30477;48.224;11.470;2023-02-01T04:43:37;96452.47;;;2.80;72.65
44751;BME280;30477;48.224;11.470;2023-02-01T04:46:03;96460.00;;;2.83;72.43
44751;BME280;30477;48.224;11.470;2023-02-01T04:48:30;96455.59;;;2.85;72.10
44751;BME280;30477;48.224;11.470;2023-02-01T04:50:55;96452.88;;;2.89;72.19
44751;BME280;30477;48.224;11.470;2023-02-01T04:53:20;96446.78;;;2.91;72.27
44751;BME280;30477;48.224;11.470;2023-02-01T04:55:48;96448.25;;;2.95;72.04
44751;BME280;30477;48.224;11.470;2023-02-01T04:58:14;96465.34;;;2.95;71.79
44751;BME280;30477;48.224;11.470;2023-02-01T05:00:39;96460.97;;;2.97;71.88
44751;BME280;30477;48.224;11.470;2023-02-01T05:03:04;96449.25;;;2.93;71.55
44751;BME280;30477;48.224;11.470;2023-02-01T05:05:30;96451.06;;;2.91;71.63
44751;BME280;30477;48.224;11.470;2023-02-01T05:07:55;96457.81;;;2.92;71.42
44751;BME280;30477;48.224;11.470;2023-02-01T05:10:21;96467.06;;;2.94;71.55
44751;BME280;30477;48.224;11.470;2023-02-01T05:12:47;96469.38;;;2.99;71.45
44751;BME280;30477;48.224;11.470;2023-02-01T05:15:31;96466.22;;;2.94;71.22
44751;BME280;30477;48.224;11.470;2023-02-01T05:17:57;96452.47;;;2.96;71.22
44751;BME280;30477;48.224;11.470;2023-02-01T05:20:24;96460.16;;;2.96;71.29
44751;BME280;30477;48.224;11.470;2023-02-01T05:22:49;96455.25;;;2.92;71.21
44751;BME280;30477;48.224;11.470;2023-02-01T05:25:15;96456.66;;;2.97;71.27
44751;BME280;30477;48.224;11.470;2023-02-01T05:27:40;96456.84;;;2.94;71.32
44751;BME280;30477;48.224;11.470;2023-02-01T05:30:06;96463.03;;;2.90;70.98
44751;BME280;30477;48.224;11.470;2023-02-01T05:32:33;96463.66;;;2.94;71.13
44751;BME280;30477;48.224;11.470;2023-02-01T05:34:58;96461.28;;;2.91;71.19
44751;BME280;30477;48.224;11.470;2023-02-01T05:37:24;96452.38;;;2.98;71.20
44751;BME280;30477;48.224;11.470;2023-02-01T05:39:49;96446.38;;;2.99;71.21
44751;BME280;30477;48.224;11.470;2023-02-01T05:42:14;96447.09;;;3.01;70.96
44751;BME280;30477;48.224;11.470;2023-02-01T05:44:40;96453.13;;;3.00;70.88
44751;BME280;30477;48.224;11.470;2023-02-01T05:47:05;96458.22;;;3.00;70.82
44751;BME280;30477;48.224;11.470;2023-02-01T05:49:31;96444.69;;;2.98;70.71
44751;BME280;30477;48.224;11.470;2023-02-01T05:51:56;96457.34;;;3.01;70.72
44751;BME280;30477;48.224;11.470;2023-02-01T05:54:21;96447.84;;;3.03;70.65
44751;BME280;30477;48.224;11.470;2023-02-01T05:56:46;96440.66;;;3.10;70.63
44751;BME280;30477;48.224;11.470;2023-02-01T05:59:12;96438.19;;;3.08;70.41
44751;BME280;30477;48.224;11.470;2023-02-01T06:01:37;96431.44;;;3.07;70.40
44751;BME280;30477;48.224;11.470;2023-02-01T06:04:03;96431.44;;;3.07;70.36
44751;BME280;30477;48.224;11.470;2023-02-01T06:06:28;96422.84;;;3.08;70.45
44751;BME280;30477;48.224;11.470;2023-02-01T06:08:53;96423.75;;;3.07;70.40
44751;BME280;30477;48.224;11.470;2023-02-01T06:11:19;96431.44;;;3.07;70.38
44751;BME280;30477;48.224;11.470;2023-02-01T06:13:44;96436.53;;;3.07;70.26
44751;BME280;30477;48.224;11.470;2023-02-01T06:16:09;96442.47;;;3.08;70.46
44751;BME280;30477;48.224;11.470;2023-02-01T06:18:35;96428.63;;;3.12;70.67
44751;BME280;30477;48.224;11.470;2023-02-01T06:21:00;96426.88;;;3.12;70.44
44751;BME280;30477;48.224;11.470;2023-02-01T06:23:27;96435.63;;;3.08;70.62
44751;BME280;30477;48.224;11.470;2023-02-01T06:25:59;96424.97;;;3.16;70.58
44751;BME280;30477;48.224;11.470;2023-02-01T06:28:25;96431.84;;;3.15;70.50
44751;BME280;30477;48.224;11.470;2023-02-01T06:30:50;96412.19;;;3.16;70.29
44751;BME280;30477;48.224;11.470;2023-02-01T06:33:16;96426.59;;;3.17;70.36
44751;BME280;30477;48.224;11.470;2023-02-01T06:35:44;96421.41;;;3.18;70.08
44751;BME280;30477;48.224;11.470;2023-02-01T06:38:12;96423.09;;;3.19;70.02
44751;BME280;30477;48.224;11.470;2023-02-01T06:40:39;96419.78;;;3.17;70.12
44751;BME280;30477;48.224;11.470;2023-02-01T06:43:04;96417.78;;;3.22;70.03
44751;BME280;30477;48.224;11.470;2023-02-01T06:45:30;96396.31;;;3.25;69.72
44751;BME280;30477;48.224;11.470;2023-02-01T06:47:55;96414.22;;;3.25;69.63
44751;BME280;30477;48.224;11.470;2023-02-01T06:50:20;96416.63;;;3.28;69.73
44751;BME280;30477;48.224;11.470;2023-02-01T06:52:46;96401.16;;;3.30;69.54
44751;BME280;30477;48.224;11.470;2023-02-01T06:55:11;96397.06;;;3.27;69.43
44751;BME280;30477;48.224;11.470;2023-02-01T06:57:37;96412.25;;;3.30;69.45
44751;BME280;30477;48.224;11.470;2023-02-01T07:00:04;96409.56;;;3.32;69.39
44751;BME280;30477;48.224;11.470;2023-02-01T07:02:29;96420.53;;;3.34;69.35
44751;BME280;30477;48.224;11.470;2023-02-01T07:04:55;96426.31;;;3.37;69.23
44751;BME280;30477;48.224;11.470;2023-02-01T07:07:20;96429.69;;;3.38;69.20
44751;BME280;30477;48.224;11.470;2023-02-01T07:09:48;96429.69;;;3.38;69.13
44751;BME280;30477;48.224;11.470;2023-02-01T07:12:14;96433.84;;;3.40;69.10
44751;BME280;30477;48.224;11.470;2023-02-01T07:14:39;96420.78;;;3.45;69.16
44751;BME280;30477;48.224;11.470;2023-02-01T07:17:04;96408.72;;;3.47;69.02
44751;BME280;30477;48.224;11.470;2023-02-01T07:19:30;96407.91;;;3.47;68.54
44751;BME280;30477;48.224;11.470;2023-02-01T07:21:55;96408.53;;;3.50;68.33
44751;BME280;30477;48.224;11.470;2023-02-01T07:24:20;96406.63;;;3.54;68.01
44751;BME280;30477;48.224;11.470;2023-02-01T07:26:46;96410.19;;;3.51;68.32
44751;BME280;30477;48.224;11.470;2023-02-01T07:29:13;96400.59;;;3.55;68.02
44751;BME280;30477;48.224;11.470;2023-02-01T07:31:38;96409.13;;;3.55;67.71
44751;BME280;30477;48.224;11.470;2023-02-01T07:34:03;96414.03;;;3.58;67.65
44751;BME280;30477;48.224;11.470;2023-02-01T07:36:29;96408.84;;;3.60;67.66
44751;BME280;30477;48.224;11.470;2023-02-01T07:38:54;96406.00;;;3.64;67.47
44751;BME280;30477;48.224;11.470;2023-02-01T07:41:20;96408.66;;;3.63;67.10
44751;BME280;30477;48.224;11.470;2023-02-01T07:43:45;96410.38;;;3.62;67.12
44751;BME280;30477;48.224;11.470;2023-02-01T07:46:11;96411.31;;;3.61;66.73
44751;BME280;30477;48.224;11.470;2023-02-01T07:48:36;96413.69;;;3.64;66.80
44751;BME280;30477;48.224;11.470;2023-02-01T07:51:04;96413.88;;;3.61;66.72
44751;BME280;30477;48.224;11.470;2023-02-01T07:53:31;96431.59;;;3.64;66.77
44751;BME280;30477;48.224;11.470;2023-02-01T07:55:57;96427.41;;;3.63;66.39
44751;BME280;30477;48.224;11.470;2023-02-01T07:58:23;96443.50;;;3.65;66.49
44751;BME280;30477;48.224;11.470;2023-02-01T08:00:48;96436.38;;;3.71;66.30
44751;BME280;30477;48.224;11.470;2023-02-01T08:03:32;96439.31;;;3.79;66.41
44751;BME280;30477;48.224;11.470;2023-02-01T08:05:58;96429.06;;;3.79;66.05
44751;BME280;30477;48.224;11.470;2023-02-01T08:08:23;96438.50;;;3.78;66.07
44751;BME280;30477;48.224;11.470;2023-02-01T08:10:49;96443.97;;;3.72;66.03
44751;BME280;30477;48.224;11.470;2023-02-01T08:13:14;96451.66;;;3.72;66.07
44751;BME280;30477;48.224;11.470;2023-02-01T08:15:40;96443.41;;;3.67;66.04
44751;BME280;30477;48.224;11.470;2023-02-01T08:18:05;96438.19;;;3.69;66.02
44751;BME280;30477;48.224;11.470;2023-02-01T08:20:31;96439.00;;;3.69;66.17
44751;BME280;30477;48.224;11.470;2023-02-01T08:22:57;96426.13;;;3.71;66.00
44751;BME280;30477;48.224;11.470;2023-02-01T08:25:23;96446.59;;;3.71;65.93
44751;BME280;30477;48.224;11.470;2023-02-01T08:27:49;96454.28;;;3.71;65.92
44751;BME280;30477;48.224;11.470;2023-02-01T08:30:15;96447.28;;;3.74;65.84
44751;BME280;30477;48.224;11.470;2023-02-01T08:32:40;96453.00;;;3.78;66.02
44751;BME280;30477;48.224;11.470;2023-02-01T08:35:06;96460.44;;;3.82;65.72
44751;BME280;30477;48.224;11.470;2023-02-01T08:37:32;96463.91;;;3.81;65.65
44751;BME280;30477;48.224;11.470;2023-02-01T08:39:57;96452.84;;;3.81;65.54
44751;BME280;30477;48.224;11.470;2023-02-01T08:42:23;96447.53;;;3.84;65.54
44751;BME280;30477;48.224;11.470;2023-02-01T08:45:07;96454.25;;;3.86;65.51
44751;BME280;30477;48.224;11.470;2023-02-01T08:47:34;96452.66;;;3.84;65.34
44751;BME280;30477;48.224;11.470;2023-02-01T08:49:59;96468.75;;;3.86;65.19
44751;BME280;30477;48.224;11.470;2023-02-01T08:52:24;96472.16;;;3.86;65.12
44751;BME280;30477;48.224;11.470;2023-02-01T08:54:50;96457.63;;;3.87;65.11
44751;BME280;30477;48.224;11.470;2023-02-01T08:57:15;96445.72;;;3.86;65.07
44751;BME280;30477;48.224;11.470;2023-02-01T08:59:41;96453.41;;;3.86;64.80
44751;BME280;30477;48.224;11.470;2023-02-01T09:02:10;96459.91;;;3.92;64.82
44751;BME280;30477;48.224;11.470;2023-02-01T09:04:37;96452.97;;;3.94;64.66
44751;BME280;30477;48.224;11.470;2023-02-01T09:07:02;96468.97;;;3.97;64.71
44751;BME280;30477;48.224;11.470;2023-02-01T09:09:27;96472.44;;;3.96;64.60
44751;BME280;30477;48.224;11.470;2023-02-01T09:11:56;96465.69;;;3.95;64.41
44751;BME280;30477;48.224;11.470;2023-02-01T09:14:21;96459.72;;;3.95;64.44
44751;BME280;30477;48.224;11.470;2023-02-01T09:16:46;96458.16;;;3.92;64.58
44751;BME280;30477;48.224;11.470;2023-02-01T09:19:12;96449.22;;;3.99;64.62
44751;BME280;30477;48.224;11.470;2023-02-01T09:21:37;96446.47;;;4.02;64.43
44751;BME280;30477;48.224;11.470;2023-02-01T09:24:03;96445.38;;;4.06;64.14
44751;BME280;30477;48.224;11.470;2023-02-01T09:26:29;96442.81;;;4.06;64.05
44751;BME280;30477;48.224;11.470;2023-02-01T09:28:54;96438.34;;;4.10;64.13
44751;BME280;30477;48.224;11.470;2023-02-01T09:31:20;96451.16;;;4.10;63.95
44751;BME280;30477;48.224;11.470;2023-02-01T09:33:45;96454.09;;;4.18;63.94
44751;BME280;30477;48.224;11.470;2023-02-01T09:36:11;96449.50;;;4.23;64.16
44751;BME280;30477;48.224;11.470;2023-02-01T09:38:36;96448.31;;;4.29;63.77
44751;BME280;30477;48.224;11.470;2023-02-01T09:41:10;96438.81;;;4.31;63.66
44751;BME280;30477;48.224;11.470;2023-02-01T09:43:53;96461.94;;;4.30;63.71
44751;BME280;30477;48.224;11.470;2023-02-01T09:46:27;96460.94;;;4.32;63.60
44751;BME280;30477;48.224;11.470;2023-02-01T09:48:55;96466.78;;;4.34;63.57
44751;BME280;30477;48.224;11.470;2023-02-01T09:51:30;96460.03;;;4.33;63.56
44751;BME280;30477;48.224;11.470;2023-02-01T09:54:16;96464.16;;;4.36;63.61
44751;BME280;30477;48.224;11.470;2023-02-01T09:56:48;96478.06;;;4.32;63.61
44751;BME280;30477;48.224;11.470;2023-02-01T10:02:16;96490.06;;;4.31;63.77
44751;BME280;30477;48.224;11.470;2023-02-01T10:04:42;96466.06;;;4.32;63.87
44751;BME280;30477;48.224;11.470;2023-02-01T10:10:02;96494.00;;;4.22;63.72
44751;BME280;30477;48.224;11.470;2023-02-01T10:15:27;96496.34;;;4.25;63.57
44751;BME280;30477;48.224;11.470;2023-02-01T10:18:35;96502.66;;;4.20;63.77
44751;BME280;30477;48.224;11.470;2023-02-01T10:21:19;96489.97;;;4.18;64.01
44751;BME280;30477;48.224;11.470;2023-02-01T10:23:59;96516.19;;;4.22;63.94
44751;BME280;30477;48.224;11.470;2023-02-01T10:26:32;96495.91;;;4.19;63.95
44751;BME280;30477;48.224;11.470;2023-02-01T10:29:01;96505.41;;;4.17;64.18
44751;BME280;30477;48.224;11.470;2023-02-01T10:31:37;96514.00;;;4.16;63.89
44751;BME280;30477;48.224;11.470;2023-02-01T10:34:21;96514.00;;;4.16;64.36
44751;BME280;30477;48.224;11.470;2023-02-01T10:39:21;96510.88;;;4.11;64.48
44751;BME280;30477;48.224;11.470;2023-02-01T10:41:47;96510.00;;;4.12;64.71
44751;BME280;30477;48.224;11.470;2023-02-01T10:44:19;96522.31;;;4.19;64.68
44751;BME280;30477;48.224;11.470;2023-02-01T10:46:45;96515.00;;;4.13;64.40
44751;BME280;30477;48.224;11.470;2023-02-01T10:49:18;96517.41;;;4.16;64.74
44751;BME280;30477;48.224;11.470;2023-02-01T10:51:51;96504.59;;;4.16;64.90
44751;BME280;30477;48.224;11.470;2023-02-01T10:54:20;96502.31;;;4.12;64.87
44751;BME280;30477;48.224;11.470;2023-02-01T10:56:47;96499.47;;;4.16;65.07
44751;BME280;30477;48.224;11.470;2023-02-01T10:59:21;96510.72;;;4.14;65.02
44751;BME280;30477;48.224;11.470;2023-02-01T11:01:49;96498.06;;;4.11;64.46
44751;BME280;30477;48.224;11.470;2023-02-01T11:04:17;96517.00;;;4.08;64.76
44751;BME280;30477;48.224;11.470;2023-02-01T11:06:52;96520.31;;;4.10;64.81
44751;BME280;30477;48.224;11.470;2023-02-01T11:09:21;96521.31;;;4.07;65.11
44751;BME280;30477;48.224;11.470;2023-02-01T11:16:51;96520.00;;;4.00;65.37
44751;BME280;30477;48.224;11.470;2023-02-01T11:19:17;96516.09;;;4.09;65.47
44751;BME280;30477;48.224;11.470;2023-02-01T11:21:43;96511.91;;;4.08;65.42
44751;BME280;30477;48.224;11.470;2023-02-01T11:24:28;96519.19;;;4.00;65.36
44751;BME280;30477;48.224;11.470;2023-02-01T11:26:55;96523.66;;;3.96;65.48
44751;BME280;30477;48.224;11.470;2023-02-01T11:29:22;96525.47;;;3.94;65.54
44751;BME280;30477;48.224;11.470;2023-02-01T11:31:58;96514.34;;;3.95;65.65
44751;BME280;30477;48.224;11.470;2023-02-01T11:34:38;96520.00;;;4.00;65.73
44751;BME280;30477;48.224;11.470;2023-02-01T11:37:04;96513.25;;;3.99;65.51
44751;BME280;30477;48.224;11.470;2023-02-01T11:39:34;96520.38;;;3.94;65.45
44751;BME280;30477;48.224;11.470;2023-02-01T11:42:11;96511.59;;;3.98;65.49
44751;BME280;30477;48.224;11.470;2023-02-01T11:44:39;96507.13;;;4.02;65.51
44751;BME280;30477;48.224;11.470;2023-02-01T11:49:58;96519.00;;;3.89;65.61
44751;BME280;30477;48.224;11.470;2023-02-01T11:55:32;96498.25;;;3.93;65.55
44751;BME280;30477;48.224;11.470;2023-02-01T11:58:20;96493.00;;;3.95;65.85
44751;BME280;30477;48.224;11.470;2023-02-01T12:06:51;96474.09;;;3.97;65.89
44751;BME280;30477;48.224;11.470;2023-02-01T12:22:45;96470.06;;;3.93;65.50
44751;BME280;30477;48.224;11.470;2023-02-01T12:25:42;96475.69;;;3.84;65.74
44751;BME280;30477;48.224;11.470;2023-02-01T12:41:49;96470.50;;;3.85;65.28
44751;BME280;30477;48.224;11.470;2023-02-01T12:44:47;96465.47;;;3.84;65.53
44751;BME280;30477;48.224;11.470;2023-02-01T12:47:29;96462.91;;;3.84;65.57
44751;BME280;30477;48.224;11.470;2023-02-01T12:50:21;96453.59;;;3.83;65.27
44751;BME280;30477;48.224;11.470;2023-02-01T12:52:52;96465.31;;;3.87;65.29
44751;BME280;30477;48.224;11.470;2023-02-01T12:58:09;96436.31;;;3.86;64.84
44751;BME280;30477;48.224;11.470;2023-02-01T13:00:45;96446.09;;;3.94;64.75
44751;BME280;30477;48.224;11.470;2023-02-01T13:03:13;96433.28;;;3.94;64.28
44751;BME280;30477;48.224;11.470;2023-02-01T13:05:55;96414.19;;;4.00;64.28
44751;BME280;30477;48.224;11.470;2023-02-01T13:08:26;96427.28;;;4.10;64.27
44751;BME280;30477;48.224;11.470;2023-02-01T13:11:03;96435.69;;;4.12;63.94
44751;BME280;30477;48.224;11.470;2023-02-01T13:13:54;96426.00;;;4.17;63.66
44751;BME280;30477;48.224;11.470;2023-02-01T13:19:00;96432.28;;;4.11;63.44
44751;BME280;30477;48.224;11.470;2023-02-01T13:21:32;96424.31;;;4.16;63.71
44751;BME280;30477;48.224;11.470;2023-02-01T13:23:59;96428.75;;;4.14;63.94
44751;BME280;30477;48.224;11.470;2023-02-01T13:26:24;96423.63;;;4.14;63.98
44751;BME280;30477;48.224;11.470;2023-02-01T13:29:03;96427.63;;;4.18;64.19
44751;BME280;30477;48.224;11.470;2023-02-01T13:31:52;96428.75;;;4.14;64.34
44751;BME280;30477;48.224;11.470;2023-02-01T13:37:05;96426.06;;;4.15;64.64
44751;BME280;30477;48.224;11.470;2023-02-01T13:42:18;96415.09;;;4.13;64.93
44751;BME280;30477;48.224;11.470;2023-02-01T13:44:50;96424.16;;;4.04;65.15
44751;BME280;30477;48.224;11.470;2023-02-01T13:47:24;96422.31;;;4.06;65.46
44751;BME280;30477;48.224;11.470;2023-02-01T13:49:51;96427.28;;;4.10;65.58
44751;BME280;30477;48.224;11.470;2023-02-01T13:52:39;96425.97;;;4.02;65.85
44751;BME280;30477;48.224;11.470;2023-02-01T13:55:24;96428.91;;;3.96;66.21
44751;BME280;30477;48.224;11.470;2023-02-01T13:58:00;96433.28;;;3.94;66.62
44751;BME280;30477;48.224;11.470;2023-02-01T14:10:56;96441.13;;;3.77;66.90
44751;BME280;30477;48.224;11.470;2023-02-01T14:13:37;96439.31;;;3.79;67.32
44751;BME280;30477;48.224;11.470;2023-02-01T14:18:49;96431.28;;;3.85;67.31
44751;BME280;30477;48.224;11.470;2023-02-01T14:23:45;96436.75;;;3.79;67.46
44751;BME280;30477;48.224;11.470;2023-02-01T14:26:17;96438.66;;;3.75;67.81
44751;BME280;30477;48.224;11.470;2023-02-01T14:28:56;96449.72;;;3.76;67.58
44751;BME280;30477;48.224;11.470;2023-02-01T14:34:33;96438.97;;;3.85;67.52
44751;BME280;30477;48.224;11.470;2023-02-01T14:37:05;96436.13;;;3.90;66.99
44751;BME280;30477;48.224;11.470;2023-02-01T14:39:35;96449.00;;;3.88;67.05
44751;BME280;30477;48.224;11.470;2023-02-01T14:42:05;96442.25;;;3.87;66.27
44751;BME280;30477;48.224;11.470;2023-02-01T14:44:40;96451.75;;;3.85;66.21
44751;BME280;30477;48.224;11.470;2023-02-01T14:52:40;96437.28;;;3.84;65.04
44751;BME280;30477;48.224;11.470;2023-02-01T15:00:53;96441.91;;;3.93;64.61
44751;BME280;30477;48.224;11.470;2023-02-01T15:03:38;96450.31;;;3.95;64.39
44751;BME280;30477;48.224;11.470;2023-02-01T15:08:48;96455.25;;;3.98;64.15
44751;BME280;30477;48.224;11.470;2023-02-01T15:11:15;96450.03;;;4.00;64.07
44751;BME280;30477;48.224;11.470;2023-02-01T15:13:48;96457.06;;;3.96;64.16
44751;BME280;30477;48.224;11.470;2023-02-01T15:16:16;96454.59;;;3.95;64.09
44751;BME280;30477;48.224;11.470;2023-02-01T15:18:42;96454.34;;;3.99;63.98
44751;BME280;30477;48.224;11.470;2023-02-01T15:21:23;96452.69;;;3.98;63.84
44751;BME280;30477;48.224;11.470;2023-02-01T15:23:50;96450.84;;;4.00;64.02
44751;BME280;30477;48.224;11.470;2023-02-01T15:26:29;96441.34;;;4.02;63.97
44751;BME280;30477;48.224;11.470;2023-02-01T15:28:59;96434.75;;;3.98;63.85
44751;BME280;30477;48.224;11.470;2023-02-01T15:31:37;96438.25;;;3.97;64.05